sensor_id;sensor_type;location;lat;lon;timestamp;pressure;altitude;pressure_sealevel;temperature;humidity
73518;BME280;61766;60.318;25.044;2024-03-23T00:54:58;98847.22;;;5.18;52.24
73518;BME280;61766;60.318;25.044;2024-03-23T00:57:25;98858.23;;;4.96;52.60
73518;BME280;61766;60.318;25.044;2024-03-23T00:59:49;98858.34;;;5.22;52.64
73518;BME280;61766;60.318;25.044;2024-03-23T01:02:14;98861.03;;;5.50;52.14
73518;BME280;61766;60.318;25.044;2024-03-23T01:04:39;98858.62;;;4.79;52.58
73518;BME280;61766;60.318;25.044;2024-03-23T01:07:04;98851.87;;;4.19;53.78
73518;BME280;61766;60.318;25.044;2024-03-23T01:09:29;98856.27;;;5.03;52.36
73518;BME280;61766;60.318;25.044;2024-03-23T01:11:55;98847.06;;;5.32;51.42
73518;BME280;61766;60.318;25.044;2024-03-23T01:14:20;98841.77;;;4.89;52.21
73518;BME280;61766;60.318;25.044;2024-03-23T01:16:45;98846.80;;;5.34;51.66
73518;BME280;61766;60.318;25.044;2024-03-23T01:19:10;98847.30;;;5.13;51.48
73518;BME280;61766;60.318;25.044;2024-03-23T01:21:35;98842.62;;;5.11;51.99
73518;BME280;61766;60.318;25.044;2024-03-23T01:24:00;98844.80;;;5.63;50.80
73518;BME280;61766;60.318;25.044;2024-03-23T01:26:25;98846.10;;;5.36;51.20
73518;BME280;61766;60.318;25.044;2024-03-23T01:28:51;98859.31;;;5.18;51.42
73518;BME280;61766;60.318;25.044;2024-03-23T01:31:16;98860.25;;;4.97;51.96
73518;BME280;61766;60.318;25.044;2024-03-23T01:33:41;98863.24;;;5.59;51.55
73518;BME280;61766;60.318;25.044;2024-03-23T01:36:06;98861.37;;;4.89;53.69
73518;BME280;61766;60.318;25.044;2024-03-23T01:38:31;98855.17;;;4.12;55.27
73518;BME280;61766;60.318;25.044;2024-03-23T01:41:00;98849.47;;;4.45;54.60
73518;BME280;61766;60.318;25.044;2024-03-23T01:43:21;98842.96;;;3.79;56.06
73518;BME280;61766;60.318;25.044;2024-03-23T01:45:47;98843.75;;;4.25;55.39
73518;BME280;61766;60.318;25.044;2024-03-23T01:48:12;98840.61;;;4.71;54.48
73518;BME280;61766;60.318;25.044;2024-03-23T01:50:42;98844.51;;;4.77;53.59
73518;BME280;61766;60.318;25.044;2024-03-23T01:53:03;98843.27;;;5.10;52.45
73518;BME280;61766;60.318;25.044;2024-03-23T01:55:28;98849.65;;;4.87;53.27
73518;BME280;61766;60.318;25.044;2024-03-23T01:57:53;98852.15;;;4.88;52.70
73518;BME280;61766;60.318;25.044;2024-03-23T02:00:18;98848.15;;;5.19;52.17
73518;BME280;61766;60.318;25.044;2024-03-23T02:02:45;98858.76;;;5.59;51.20
73518;BME280;61766;60.318;25.044;2024-03-23T02:05:09;98858.57;;;5.46;51.37
73518;BME280;61766;60.318;25.044;2024-03-23T02:07:33;98859.09;;;5.52;51.04
73518;BME280;61766;60.318;25.044;2024-03-23T02:09:59;98858.26;;;5.61;50.96
73518;BME280;61766;60.318;25.044;2024-03-23T02:12:25;98859.78;;;5.47;50.96
73518;BME280;61766;60.318;25.044;2024-03-23T02:14:49;98855.29;;;5.52;50.45
73518;BME280;61766;60.318;25.044;2024-03-23T02:17:14;98854.05;;;4.61;52.93
73518;BME280;61766;60.318;25.044;2024-03-23T02:19:40;98853.14;;;4.74;52.98
73518;BME280;61766;60.318;25.044;2024-03-23T02:22:05;98852.44;;;4.09;54.14
73518;BME280;61766;60.318;25.044;2024-03-23T02:26:57;98848.65;;;4.93;52.19
73518;BME280;61766;60.318;25.044;2024-03-23T02:29:20;98850.56;;;4.43;53.74
73518;BME280;61766;60.318;25.044;2024-03-23T02:31:45;98853.08;;;4.58;53.38
73518;BME280;61766;60.318;25.044;2024-03-23T02:34:10;98853.45;;;4.49;53.32
73518;BME280;61766;60.318;25.044;2024-03-23T02:36:36;98860.11;;;5.08;51.98
73518;BME280;61766;60.318;25.044;2024-03-23T02:39:01;98856.62;;;4.97;51.78
73518;BME280;61766;60.318;25.044;2024-03-23T02:41:26;98858.78;;;4.87;51.91
73518;BME280;61766;60.318;25.044;2024-03-23T02:43:52;98856.51;;;5.28;50.88
73518;BME280;61766;60.318;25.044;2024-03-23T02:46:16;98856.52;;;5.09;51.41
73518;BME280;61766;60.318;25.044;2024-03-23T02:48:41;98853.76;;;5.23;51.24
73518;BME280;61766;60.318;25.044;2024-03-23T02:51:07;98851.52;;;5.61;50.78
73518;BME280;61766;60.318;25.044;2024-03-23T02:53:32;98857.61;;;5.31;52.23
73518;BME280;61766;60.318;25.044;2024-03-23T02:58:22;98858.29;;;5.53;50.76
73518;BME280;61766;60.318;25.044;2024-03-23T03:00:47;98859.36;;;5.72;50.10
73518;BME280;61766;60.318;25.044;2024-03-23T03:03:12;98859.20;;;5.56;49.83
73518;BME280;61766;60.318;25.044;2024-03-23T03:05:37;98859.78;;;5.23;50.03
73518;BME280;61766;60.318;25.044;2024-03-23T03:08:03;98858.14;;;6.00;48.76
73518;BME280;61766;60.318;25.044;2024-03-23T03:10:28;98850.40;;;6.26;47.71
73518;BME280;61766;60.318;25.044;2024-03-23T03:12:53;98857.14;;;5.52;49.35
73518;BME280;61766;60.318;25.044;2024-03-23T03:15:18;98854.98;;;5.42;49.50
73518;BME280;61766;60.318;25.044;2024-03-23T03:17:43;98854.36;;;5.24;49.90
73518;BME280;61766;60.318;25.044;2024-03-23T03:20:09;98853.56;;;4.73;51.47
73518;BME280;61766;60.318;25.044;2024-03-23T03:22:33;98856.68;;;5.14;51.39
73518;BME280;61766;60.318;25.044;2024-03-23T03:24:58;98849.65;;;4.26;52.31
73518;BME280;61766;60.318;25.044;2024-03-23T03:27:23;98852.03;;;4.64;52.46
73518;BME280;61766;60.318;25.044;2024-03-23T03:29:49;98857.44;;;4.58;51.53
73518;BME280;61766;60.318;25.044;2024-03-23T03:39:29;98857.42;;;5.56;48.61
73518;BME280;61766;60.318;25.044;2024-03-23T03:41:54;98860.83;;;5.67;47.81
73518;BME280;61766;60.318;25.044;2024-03-23T03:44:21;98855.71;;;6.19;47.15
73518;BME280;61766;60.318;25.044;2024-03-23T03:46:45;98855.88;;;6.53;47.43
73518;BME280;61766;60.318;25.044;2024-03-23T03:49:10;98862.32;;;6.02;47.63
73518;BME280;61766;60.318;25.044;2024-03-23T03:51:35;98866.63;;;5.91;48.49
73518;BME280;61766;60.318;25.044;2024-03-23T03:54:00;98865.52;;;5.02;50.35
73518;BME280;61766;60.318;25.044;2024-03-23T03:56:25;98857.42;;;5.64;49.42
73518;BME280;61766;60.318;25.044;2024-03-23T03:58:50;98861.75;;;5.13;50.56
73518;BME280;61766;60.318;25.044;2024-03-23T04:01:15;98856.17;;;4.24;52.39
73518;BME280;61766;60.318;25.044;2024-03-23T04:03:41;98858.02;;;4.67;52.48
73518;BME280;61766;60.318;25.044;2024-03-23T04:06:06;98860.42;;;5.05;51.62
73518;BME280;61766;60.318;25.044;2024-03-23T04:08:31;98859.63;;;5.29;50.53
73518;BME280;61766;60.318;25.044;2024-03-23T04:10:57;98858.82;;;4.36;51.90
73518;BME280;61766;60.318;25.044;2024-03-23T04:13:22;98852.63;;;4.67;52.39
73518;BME280;61766;60.318;25.044;2024-03-23T04:15:47;98855.06;;;4.46;52.90
73518;BME280;61766;60.318;25.044;2024-03-23T04:18:12;98860.21;;;4.64;52.69
73518;BME280;61766;60.318;25.044;2024-03-23T04:20:37;98858.46;;;5.16;51.83
73518;BME280;61766;60.318;25.044;2024-03-23T04:23:03;98861.90;;;4.43;52.72
73518;BME280;61766;60.318;25.044;2024-03-23T04:25:28;98863.57;;;4.84;51.98
73518;BME280;61766;60.318;25.044;2024-03-23T04:27:53;98868.52;;;4.81;51.79
73518;BME280;61766;60.318;25.044;2024-03-23T04:30:19;98871.81;;;4.60;52.07
73518;BME280;61766;60.318;25.044;2024-03-23T04:32:44;98877.38;;;4.21;53.75
73518;BME280;61766;60.318;25.044;2024-03-23T04:35:09;98875.26;;;4.41;53.13
73518;BME280;61766;60.318;25.044;2024-03-23T04:37:34;98879.60;;;4.31;53.57
73518;BME280;61766;60.318;25.044;2024-03-23T04:39:59;98884.08;;;4.05;53.12
73518;BME280;61766;60.318;25.044;2024-03-23T04:42:24;98885.79;;;4.41;52.63
73518;BME280;61766;60.318;25.044;2024-03-23T04:44:50;98887.44;;;4.74;52.07
73518;BME280;61766;60.318;25.044;2024-03-23T04:47:16;98891.70;;;4.33;52.95
73518;BME280;61766;60.318;25.044;2024-03-23T04:49:40;98889.85;;;4.68;51.37
73518;BME280;61766;60.318;25.044;2024-03-23T04:54:30;98886.25;;;5.11;49.37
73518;BME280;61766;60.318;25.044;2024-03-23T04:56:55;98891.92;;;5.60;48.44
73518;BME280;61766;60.318;25.044;2024-03-23T04:59:20;98894.08;;;5.75;48.02
73518;BME280;61766;60.318;25.044;2024-03-23T05:01:46;98898.16;;;5.83;47.56
73518;BME280;61766;60.318;25.044;2024-03-23T05:04:11;98899.57;;;5.50;48.29
73518;BME280;61766;60.318;25.044;2024-03-23T05:06:36;98894.67;;;4.50;50.86
73518;BME280;61766;60.318;25.044;2024-03-23T05:09:01;98894.40;;;5.58;49.52
73518;BME280;61766;60.318;25.044;2024-03-23T05:11:26;98901.67;;;5.07;50.27
73518;BME280;61766;60.318;25.044;2024-03-23T05:13:51;98900.45;;;4.69;50.29
73518;BME280;61766;60.318;25.044;2024-03-23T05:16:16;98898.93;;;4.66;50.94
73518;BME280;61766;60.318;25.044;2024-03-23T05:18:41;98904.13;;;5.09;50.21
73518;BME280;61766;60.318;25.044;2024-03-23T05:21:07;98906.47;;;4.73;50.18
73518;BME280;61766;60.318;25.044;2024-03-23T05:23:35;98911.38;;;5.12;49.13
73518;BME280;61766;60.318;25.044;2024-03-23T05:25:57;98909.32;;;4.75;49.72
73518;BME280;61766;60.318;25.044;2024-03-23T05:28:22;98911.70;;;5.65;48.28
73518;BME280;61766;60.318;25.044;2024-03-23T05:30:50;98912.31;;;4.72;49.89
73518;BME280;61766;60.318;25.044;2024-03-23T05:33:13;98912.59;;;5.18;49.56
73518;BME280;61766;60.318;25.044;2024-03-23T05:35:38;98913.90;;;4.96;50.13
73518;BME280;61766;60.318;25.044;2024-03-23T05:38:03;98914.95;;;4.80;50.27
73518;BME280;61766;60.318;25.044;2024-03-23T05:40:29;98919.03;;;5.04;49.23
73518;BME280;61766;60.318;25.044;2024-03-23T05:42:53;98919.32;;;5.32;49.01
73518;BME280;61766;60.318;25.044;2024-03-23T05:45:19;98919.79;;;5.59;48.38
73518;BME280;61766;60.318;25.044;2024-03-23T05:47:45;98919.62;;;5.64;48.52
73518;BME280;61766;60.318;25.044;2024-03-23T05:50:09;98918.94;;;5.51;48.55
73518;BME280;61766;60.318;25.044;2024-03-23T05:52:34;98918.81;;;5.31;48.39
73518;BME280;61766;60.318;25.044;2024-03-23T05:55:00;98920.84;;;5.46;47.74
73518;BME280;61766;60.318;25.044;2024-03-23T05:57:24;98922.60;;;5.67;47.67
73518;BME280;61766;60.318;25.044;2024-03-23T05:59:49;98925.70;;;5.27;48.14
73518;BME280;61766;60.318;25.044;2024-03-23T06:02:14;98926.14;;;5.44;47.45
73518;BME280;61766;60.318;25.044;2024-03-23T06:04:40;98930.25;;;6.46;46.44
73518;BME280;61766;60.318;25.044;2024-03-23T06:07:06;98932.20;;;5.79;46.54
73518;BME280;61766;60.318;25.044;2024-03-23T06:09:38;98937.05;;;5.77;45.92
73518;BME280;61766;60.318;25.044;2024-03-23T06:11:56;98941.20;;;6.30;45.61
73518;BME280;61766;60.318;25.044;2024-03-23T06:14:20;98940.20;;;6.50;45.27
73518;BME280;61766;60.318;25.044;2024-03-23T06:16:45;98946.39;;;6.55;45.11
73518;BME280;61766;60.318;25.044;2024-03-23T06:19:10;98944.99;;;6.81;44.63
73518;BME280;61766;60.318;25.044;2024-03-23T06:21:36;98946.51;;;6.70;44.78
73518;BME280;61766;60.318;25.044;2024-03-23T06:24:01;98955.12;;;6.24;45.34
73518;BME280;61766;60.318;25.044;2024-03-23T06:26:26;98955.62;;;6.04;45.26
73518;BME280;61766;60.318;25.044;2024-03-23T06:28:51;98959.26;;;6.76;44.42
73518;BME280;61766;60.318;25.044;2024-03-23T06:31:16;98959.77;;;6.62;44.60
73518;BME280;61766;60.318;25.044;2024-03-23T06:33:41;98965.69;;;6.26;44.22
73518;BME280;61766;60.318;25.044;2024-03-23T06:36:07;98975.78;;;6.04;44.84
73518;BME280;61766;60.318;25.044;2024-03-23T06:38:31;98974.02;;;6.61;43.99
73518;BME280;61766;60.318;25.044;2024-03-23T06:40:56;98977.30;;;6.31;44.68
73518;BME280;61766;60.318;25.044;2024-03-23T06:43:22;98977.95;;;6.92;44.25
73518;BME280;61766;60.318;25.044;2024-03-23T06:45:52;98982.47;;;6.61;44.24
73518;BME280;61766;60.318;25.044;2024-03-23T06:48:12;98984.24;;;6.15;45.61
73518;BME280;61766;60.318;25.044;2024-03-23T06:50:37;98983.18;;;5.83;46.55
73518;BME280;61766;60.318;25.044;2024-03-23T06:53:02;98984.62;;;6.30;46.17
73518;BME280;61766;60.318;25.044;2024-03-23T06:55:27;98984.62;;;5.73;46.43
73518;BME280;61766;60.318;25.044;2024-03-23T06:57:52;98990.17;;;6.29;46.85
73518;BME280;61766;60.318;25.044;2024-03-23T07:00:18;98992.18;;;6.29;46.64
73518;BME280;61766;60.318;25.044;2024-03-23T07:02:47;98996.32;;;6.19;46.23
73518;BME280;61766;60.318;25.044;2024-03-23T07:05:13;98994.48;;;5.84;46.82
73518;BME280;61766;60.318;25.044;2024-03-23T07:07:34;99002.57;;;6.25;46.40
73518;BME280;61766;60.318;25.044;2024-03-23T07:09:58;99002.08;;;6.10;46.68
73518;BME280;61766;60.318;25.044;2024-03-23T07:12:23;99007.35;;;6.54;45.78
73518;BME280;61766;60.318;25.044;2024-03-23T07:14:48;99009.85;;;6.00;46.58
73518;BME280;61766;60.318;25.044;2024-03-23T07:19:41;99016.66;;;6.03;46.23
73518;BME280;61766;60.318;25.044;2024-03-23T07:22:03;99017.17;;;5.78;46.21
73518;BME280;61766;60.318;25.044;2024-03-23T07:24:28;99023.37;;;6.28;45.59
73518;BME280;61766;60.318;25.044;2024-03-23T07:26:53;99021.35;;;6.76;45.10
73518;BME280;61766;60.318;25.044;2024-03-23T07:29:19;99023.95;;;6.45;45.40
73518;BME280;61766;60.318;25.044;2024-03-23T07:31:44;99028.98;;;6.23;45.97
73518;BME280;61766;60.318;25.044;2024-03-23T07:34:09;99038.01;;;6.42;46.09
73518;BME280;61766;60.318;25.044;2024-03-23T07:36:34;99037.33;;;6.68;45.36
73518;BME280;61766;60.318;25.044;2024-03-23T07:38:59;99040.72;;;6.66;44.33
73518;BME280;61766;60.318;25.044;2024-03-23T07:41:24;99042.77;;;6.48;44.92
73518;BME280;61766;60.318;25.044;2024-03-23T07:43:49;99049.26;;;6.87;44.59
73518;BME280;61766;60.318;25.044;2024-03-23T07:46:15;99052.84;;;6.45;44.92
73518;BME280;61766;60.318;25.044;2024-03-23T07:48:39;99056.70;;;5.94;45.80
73518;BME280;61766;60.318;25.044;2024-03-23T07:51:07;99060.06;;;6.56;45.27
73518;BME280;61766;60.318;25.044;2024-03-23T07:53:30;99059.46;;;6.70;44.61
73518;BME280;61766;60.318;25.044;2024-03-23T07:55:57;99059.95;;;6.46;44.21
73518;BME280;61766;60.318;25.044;2024-03-23T07:58:20;99066.75;;;6.29;43.67
73518;BME280;61766;60.318;25.044;2024-03-23T08:03:10;99063.78;;;7.17;43.07
73518;BME280;61766;60.318;25.044;2024-03-23T08:08:00;99065.37;;;6.95;42.64
73518;BME280;61766;60.318;25.044;2024-03-23T08:10:25;99071.87;;;6.68;42.79
73518;BME280;61766;60.318;25.044;2024-03-23T08:12:50;99075.50;;;6.86;42.93
73518;BME280;61766;60.318;25.044;2024-03-23T08:15:15;99074.82;;;6.32;43.40
73518;BME280;61766;60.318;25.044;2024-03-23T08:17:40;99077.78;;;6.31;45.00
73518;BME280;61766;60.318;25.044;2024-03-23T08:20:06;99077.52;;;6.37;44.34
73518;BME280;61766;60.318;25.044;2024-03-23T08:22:31;99077.45;;;6.55;43.97
73518;BME280;61766;60.318;25.044;2024-03-23T08:24:56;99081.09;;;6.56;43.76
73518;BME280;61766;60.318;25.044;2024-03-23T08:27:21;99079.65;;;6.66;43.80
73518;BME280;61766;60.318;25.044;2024-03-23T08:29:48;99083.38;;;7.04;43.41
73518;BME280;61766;60.318;25.044;2024-03-23T08:32:11;99082.94;;;6.66;44.25
73518;BME280;61766;60.318;25.044;2024-03-23T08:34:36;99073.62;;;6.50;43.31
73518;BME280;61766;60.318;25.044;2024-03-23T08:39:26;99074.09;;;6.93;45.26
73518;BME280;61766;60.318;25.044;2024-03-23T08:41:51;99069.01;;;7.71;44.10
73518;BME280;61766;60.318;25.044;2024-03-23T08:44:16;99067.40;;;8.23;42.71
73518;BME280;61766;60.318;25.044;2024-03-23T08:46:41;99067.45;;;8.30;41.14
73518;BME280;61766;60.318;25.044;2024-03-23T08:49:06;99072.44;;;8.14;43.72
73518;BME280;61766;60.318;25.044;2024-03-23T08:51:31;99070.36;;;8.32;42.42
73518;BME280;61766;60.318;25.044;2024-03-23T08:53:56;99072.02;;;9.04;41.52
73518;BME280;61766;60.318;25.044;2024-03-23T08:56:21;99072.08;;;9.44;39.84
73518;BME280;61766;60.318;25.044;2024-03-23T08:58:46;99074.99;;;8.76;40.26
73518;BME280;61766;60.318;25.044;2024-03-23T09:01:13;99076.23;;;8.66;41.68
73518;BME280;61766;60.318;25.044;2024-03-23T09:03:37;99076.66;;;8.37;41.30
73518;BME280;61766;60.318;25.044;2024-03-23T09:06:02;99076.36;;;8.57;40.60
73518;BME280;61766;60.318;25.044;2024-03-23T09:08:27;99082.10;;;7.38;42.11
73518;BME280;61766;60.318;25.044;2024-03-23T09:10:52;99083.16;;;6.89;44.48
73518;BME280;61766;60.318;25.044;2024-03-23T09:13:17;99079.59;;;7.56;43.91
73518;BME280;61766;60.318;25.044;2024-03-23T09:15:48;99078.24;;;7.76;43.14
73518;BME280;61766;60.318;25.044;2024-03-23T09:18:07;99079.91;;;8.11;42.55
73518;BME280;61766;60.318;25.044;2024-03-23T09:20:32;99080.68;;;8.71;42.33
73518;BME280;61766;60.318;25.044;2024-03-23T09:22:57;99081.14;;;8.59;40.30
73518;BME280;61766;60.318;25.044;2024-03-23T09:25:22;99079.30;;;8.17;41.37
73518;BME280;61766;60.318;25.044;2024-03-23T09:27:49;99079.58;;;9.32;40.55
73518;BME280;61766;60.318;25.044;2024-03-23T09:30:13;99080.68;;;9.78;38.74
73518;BME280;61766;60.318;25.044;2024-03-23T09:32:37;99082.27;;;8.90;39.65
73518;BME280;61766;60.318;25.044;2024-03-23T09:35:02;99079.99;;;9.69;38.31
73518;BME280;61766;60.318;25.044;2024-03-23T09:37:27;99079.95;;;10.20;38.35
73518;BME280;61766;60.318;25.044;2024-03-23T09:39:52;99085.11;;;10.43;37.49
73518;BME280;61766;60.318;25.044;2024-03-23T09:42:17;99083.18;;;9.93;37.96
73518;BME280;61766;60.318;25.044;2024-03-23T09:44:44;99092.14;;;9.63;39.00
73518;BME280;61766;60.318;25.044;2024-03-23T09:47:07;99092.51;;;9.69;38.35
73518;BME280;61766;60.318;25.044;2024-03-23T09:49:42;99097.71;;;9.35;38.46
73518;BME280;61766;60.318;25.044;2024-03-23T09:51:59;99105.28;;;9.51;37.02
73518;BME280;61766;60.318;25.044;2024-03-23T09:54:24;99103.90;;;8.25;40.25
73518;BME280;61766;60.318;25.044;2024-03-23T09:56:48;99100.75;;;8.65;39.13
73518;BME280;61766;60.318;25.044;2024-03-23T09:59:13;99104.27;;;8.33;40.44
73518;BME280;61766;60.318;25.044;2024-03-23T10:01:40;99103.75;;;8.44;40.12
73518;BME280;61766;60.318;25.044;2024-03-23T10:04:03;99102.46;;;8.85;38.76
73518;BME280;61766;60.318;25.044;2024-03-23T10:06:28;99105.80;;;8.78;39.37
73518;BME280;61766;60.318;25.044;2024-03-23T10:08:53;99106.80;;;9.09;39.72
73518;BME280;61766;60.318;25.044;2024-03-23T10:11:20;99108.87;;;9.32;40.59
73518;BME280;61766;60.318;25.044;2024-03-23T10:13:44;99117.90;;;9.76;38.49
73518;BME280;61766;60.318;25.044;2024-03-23T10:16:09;99120.35;;;8.79;40.17
73518;BME280;61766;60.318;25.044;2024-03-23T10:18:37;99122.28;;;9.66;38.69
73518;BME280;61766;60.318;25.044;2024-03-23T10:21:06;99121.99;;;9.28;40.22
73518;BME280;61766;60.318;25.044;2024-03-23T10:23:26;99122.37;;;8.54;39.53
73518;BME280;61766;60.318;25.044;2024-03-23T10:28:15;99122.92;;;9.21;39.55
73518;BME280;61766;60.318;25.044;2024-03-23T10:30:40;99125.16;;;8.97;40.17
73518;BME280;61766;60.318;25.044;2024-03-23T10:33:10;99129.06;;;8.71;40.19
73518;BME280;61766;60.318;25.044;2024-03-23T10:35:31;99125.93;;;8.91;38.50
73518;BME280;61766;60.318;25.044;2024-03-23T10:37:55;99123.60;;;9.54;39.46
73518;BME280;61766;60.318;25.044;2024-03-23T10:40:20;99130.13;;;9.89;37.55
73518;BME280;61766;60.318;25.044;2024-03-23T10:42:45;99132.08;;;9.13;40.02
73518;BME280;61766;60.318;25.044;2024-03-23T10:45:11;99133.24;;;8.96;40.28
73518;BME280;61766;60.318;25.044;2024-03-23T10:47:36;99137.14;;;9.40;38.62
73518;BME280;61766;60.318;25.044;2024-03-23T10:50:00;99141.25;;;8.24;40.24
73518;BME280;61766;60.318;25.044;2024-03-23T10:52:25;99138.61;;;7.81;41.95
73518;BME280;61766;60.318;25.044;2024-03-23T10:54:51;99135.54;;;7.86;41.29
73518;BME280;61766;60.318;25.044;2024-03-23T10:57:20;99131.17;;;7.60;42.17
73518;BME280;61766;60.318;25.044;2024-03-23T10:59:41;99133.07;;;7.94;42.17
73518;BME280;61766;60.318;25.044;2024-03-23T11:02:05;99131.53;;;7.79;41.45
73518;BME280;61766;60.318;25.044;2024-03-23T11:04:34;99131.81;;;7.62;41.50
73518;BME280;61766;60.318;25.044;2024-03-23T11:06:55;99131.27;;;7.80;40.53
73518;BME280;61766;60.318;25.044;2024-03-23T11:11:45;99134.85;;;8.02;41.25
73518;BME280;61766;60.318;25.044;2024-03-23T11:14:22;99138.01;;;8.20;41.12
73518;BME280;61766;60.318;25.044;2024-03-23T11:16:35;99136.54;;;8.15;42.46
73518;BME280;61766;60.318;25.044;2024-03-23T11:23:51;99139.36;;;8.52;39.04
73518;BME280;61766;60.318;25.044;2024-03-23T11:26:15;99137.57;;;9.88;36.70
73518;BME280;61766;60.318;25.044;2024-03-23T11:28:41;99141.16;;;9.43;38.38
73518;BME280;61766;60.318;25.044;2024-03-23T11:31:12;99136.43;;;10.06;38.54
73518;BME280;61766;60.318;25.044;2024-03-23T11:33:33;99139.53;;;10.51;37.07
73518;BME280;61766;60.318;25.044;2024-03-23T11:35:59;99136.60;;;10.58;36.53
73518;BME280;61766;60.318;25.044;2024-03-23T11:38:25;99135.23;;;10.84;36.11
73518;BME280;61766;60.318;25.044;2024-03-23T11:43:18;99134.19;;;10.75;35.29
73518;BME280;61766;60.318;25.044;2024-03-23T11:45:51;99138.06;;;9.71;36.94
73518;BME280;61766;60.318;25.044;2024-03-23T11:48:10;99136.63;;;8.95;38.36
73518;BME280;61766;60.318;25.044;2024-03-23T11:50:32;99135.26;;;8.89;39.25
73518;BME280;61766;60.318;25.044;2024-03-23T11:53:08;99139.07;;;9.17;38.56
73518;BME280;61766;60.318;25.044;2024-03-23T11:55:22;99137.70;;;8.62;39.77
73518;BME280;61766;60.318;25.044;2024-03-23T11:57:48;99140.71;;;8.93;39.14
73518;BME280;61766;60.318;25.044;2024-03-23T12:00:21;99138.17;;;8.88;39.00
73518;BME280;61766;60.318;25.044;2024-03-23T12:02:37;99141.63;;;8.66;39.67
73518;BME280;61766;60.318;25.044;2024-03-23T12:07:28;99147.43;;;9.05;38.53
73518;BME280;61766;60.318;25.044;2024-03-23T12:10:03;99153.75;;;8.25;40.07
73518;BME280;61766;60.318;25.044;2024-03-23T12:12:19;99154.13;;;8.27;40.51
73518;BME280;61766;60.318;25.044;2024-03-23T12:14:43;99152.01;;;7.87;40.84
73518;BME280;61766;60.318;25.044;2024-03-23T12:17:13;99151.59;;;8.71;40.22
73518;BME280;61766;60.318;25.044;2024-03-23T12:19:33;99156.69;;;6.79;42.05
73518;BME280;61766;60.318;25.044;2024-03-23T12:21:58;99158.21;;;7.71;42.04
73518;BME280;61766;60.318;25.044;2024-03-23T12:24:23;99158.70;;;8.25;42.53
73518;BME280;61766;60.318;25.044;2024-03-23T12:26:48;99152.62;;;8.39;41.43
73518;BME280;61766;60.318;25.044;2024-03-23T12:29:13;99154.78;;;8.12;40.92
73518;BME280;61766;60.318;25.044;2024-03-23T12:31:38;99151.37;;;8.42;41.39
73518;BME280;61766;60.318;25.044;2024-03-23T12:34:03;99157.99;;;8.23;41.23
73518;BME280;61766;60.318;25.044;2024-03-23T12:36:28;99161.79;;;7.72;41.90
73518;BME280;61766;60.318;25.044;2024-03-23T12:38:53;99160.78;;;7.73;42.23
73518;BME280;61766;60.318;25.044;2024-03-23T12:41:18;99161.37;;;7.24;43.08
73518;BME280;61766;60.318;25.044;2024-03-23T12:43:43;99162.86;;;7.92;42.54
73518;BME280;61766;60.318;25.044;2024-03-23T12:46:08;99161.73;;;7.64;43.30
73518;BME280;61766;60.318;25.044;2024-03-23T12:48:35;99164.57;;;7.29;44.39
73518;BME280;61766;60.318;25.044;2024-03-23T12:50:59;99166.57;;;7.60;43.00
73518;BME280;61766;60.318;25.044;2024-03-23T12:55:56;99164.48;;;8.33;41.14
73518;BME280;61766;60.318;25.044;2024-03-23T12:58:14;99167.07;;;8.42;40.10
73518;BME280;61766;60.318;25.044;2024-03-23T13:00:39;99169.16;;;8.38;41.18
73518;BME280;61766;60.318;25.044;2024-03-23T13:03:04;99169.68;;;8.21;41.74
73518;BME280;61766;60.318;25.044;2024-03-23T13:05:30;99171.79;;;7.65;42.88
73518;BME280;61766;60.318;25.044;2024-03-23T13:07:54;99168.71;;;6.92;43.91
73518;BME280;61766;60.318;25.044;2024-03-23T13:10:19;99170.83;;;8.23;42.14
73518;BME280;61766;60.318;25.044;2024-03-23T13:12:44;99169.54;;;8.67;42.17
73518;BME280;61766;60.318;25.044;2024-03-23T13:15:10;99176.94;;;8.08;42.14
73518;BME280;61766;60.318;25.044;2024-03-23T13:17:35;99177.54;;;8.14;42.23
73518;BME280;61766;60.318;25.044;2024-03-23T13:20:00;99185.33;;;8.18;41.71
73518;BME280;61766;60.318;25.044;2024-03-23T13:22:25;99182.87;;;8.14;41.80
73518;BME280;61766;60.318;25.044;2024-03-23T13:24:50;99183.18;;;8.35;41.91
73518;BME280;61766;60.318;25.044;2024-03-23T13:27:15;99185.54;;;8.08;42.63
73518;BME280;61766;60.318;25.044;2024-03-23T13:29:41;99185.84;;;7.77;42.48
73518;BME280;61766;60.318;25.044;2024-03-23T13:32:06;99190.62;;;8.01;42.64
73518;BME280;61766;60.318;25.044;2024-03-23T13:34:37;99183.66;;;8.25;40.87
73518;BME280;61766;60.318;25.044;2024-03-23T13:36:56;99191.17;;;7.73;42.04
73518;BME280;61766;60.318;25.044;2024-03-23T13:39:21;99186.65;;;8.09;41.60
73518;BME280;61766;60.318;25.044;2024-03-23T13:41:47;99180.86;;;8.68;40.78
73518;BME280;61766;60.318;25.044;2024-03-23T13:44:12;99187.47;;;8.12;41.55
73518;BME280;61766;60.318;25.044;2024-03-23T13:46:36;99193.04;;;8.11;42.31
73518;BME280;61766;60.318;25.044;2024-03-23T13:49:01;99188.71;;;8.25;43.11
73518;BME280;61766;60.318;25.044;2024-03-23T13:51:27;99190.15;;;8.52;41.84
73518;BME280;61766;60.318;25.044;2024-03-23T13:53:51;99193.92;;;8.30;41.90
73518;BME280;61766;60.318;25.044;2024-03-23T13:56:16;99196.42;;;8.37;42.57
73518;BME280;61766;60.318;25.044;2024-03-23T13:58:41;99201.52;;;7.55;44.01
73518;BME280;61766;60.318;25.044;2024-03-23T14:01:06;99202.94;;;6.98;44.76
73518;BME280;61766;60.318;25.044;2024-03-23T14:03:31;99207.19;;;6.05;46.04
73518;BME280;61766;60.318;25.044;2024-03-23T14:05:57;99210.68;;;7.09;45.14
73518;BME280;61766;60.318;25.044;2024-03-23T14:08:21;99212.07;;;6.11;46.68
73518;BME280;61766;60.318;25.044;2024-03-23T14:10:46;99209.97;;;6.26;46.51
73518;BME280;61766;60.318;25.044;2024-03-23T14:15:37;99213.00;;;6.73;45.50
73518;BME280;61766;60.318;25.044;2024-03-23T14:18:02;99211.27;;;7.24;44.81
73518;BME280;61766;60.318;25.044;2024-03-23T14:20:33;99211.10;;;6.54;45.20
73518;BME280;61766;60.318;25.044;2024-03-23T14:22:52;99214.43;;;6.82;44.78
73518;BME280;61766;60.318;25.044;2024-03-23T14:25:17;99213.77;;;6.10;45.92